Weather at Želeč Airstrip

Public forecast

Using degrees Celsius for public forecast. Weather courtesy of forecast.io.

Closest aviation weather report (METAR) to Želeč Airstrip

Closest report is Čáslav Air Base, 46.1 nm (85.4 km) NE. Retrieved 2020/09/27 17:00 UTC (2 minutes ago):

LKCV 271700Z 06005KT 9999 BKN049 11/07 Q1008 NOSIG

Closest aviation forecast (TAF) to Želeč Airstrip

Closest forecast is Čáslav Air Base, 46.1 nm (85.4 km) NE. Retrieved 2020/09/27 12:02 UTC (5 hours ago):

TAF LKCV 271100Z 2712/2812 24008KT 9999 BKN033 BECMG 2716/2719 14006KT CAVOK BECMG 2807/2810 31006KT RA BKN020 TEMPO 2808/2812 7000 BKN008 OVC020